sensor_id;sensor_type;location;lat;lon;timestamp;pressure;altitude;pressure_sealevel;temperature;humidity
10135;BME280;5107;48.850;8.924;2023-03-25T00:00:06;96165.88;;;7.80;86.13
10135;BME280;5107;48.850;8.924;2023-03-25T00:02:38;96170.47;;;7.78;85.81
10135;BME280;5107;48.850;8.924;2023-03-25T00:05:08;96186.00;;;7.71;86.63
10135;BME280;5107;48.850;8.924;2023-03-25T00:07:37;96189.97;;;7.67;86.55
10135;BME280;5107;48.850;8.924;2023-03-25T00:10:08;96172.44;;;7.68;86.01
10135;BME280;5107;48.850;8.924;2023-03-25T00:12:35;96172.78;;;7.65;86.00
10135;BME280;5107;48.850;8.924;2023-03-25T00:15:07;96176.34;;;7.72;85.34
10135;BME280;5107;48.850;8.924;2023-03-25T00:17:34;96169.31;;;7.72;85.07
10135;BME280;5107;48.850;8.924;2023-03-25T00:20:04;96177.84;;;7.74;85.64
10135;BME280;5107;48.850;8.924;2023-03-25T00:22:34;96178.81;;;7.73;85.79
10135;BME280;5107;48.850;8.924;2023-03-25T00:25:12;96163.09;;;7.73;85.15
10135;BME280;5107;48.850;8.924;2023-03-25T00:27:45;96171.63;;;7.75;86.31
10135;BME280;5107;48.850;8.924;2023-03-25T00:30:17;96165.72;;;7.73;86.74
10135;BME280;5107;48.850;8.924;2023-03-25T00:32:45;96169.00;;;7.67;87.03
10135;BME280;5107;48.850;8.924;2023-03-25T00:35:14;96165.06;;;7.63;87.84
10135;BME280;5107;48.850;8.924;2023-03-25T00:37:42;96170.66;;;7.60;87.35
10135;BME280;5107;48.850;8.924;2023-03-25T00:40:12;96158.38;;;7.69;86.27
10135;BME280;5107;48.850;8.924;2023-03-25T00:42:39;96160.19;;;7.68;86.85
10135;BME280;5107;48.850;8.924;2023-03-25T00:45:10;96160.19;;;7.60;87.06
10135;BME280;5107;48.850;8.924;2023-03-25T00:47:37;96142.34;;;7.55;87.47
10135;BME280;5107;48.850;8.924;2023-03-25T00:50:06;96152.66;;;7.49;87.48
10135;BME280;5107;48.850;8.924;2023-03-25T00:52:33;96142.84;;;7.43;87.41
10135;BME280;5107;48.850;8.924;2023-03-25T00:55:00;96144.66;;;7.34;88.46
10135;BME280;5107;48.850;8.924;2023-03-25T00:57:29;96143.50;;;7.29;88.36
10135;BME280;5107;48.850;8.924;2023-03-25T00:59:57;96135.81;;;7.27;88.43
10135;BME280;5107;48.850;8.924;2023-03-25T01:02:24;96135.16;;;7.25;88.62
10135;BME280;5107;48.850;8.924;2023-03-25T01:04:51;96140.56;;;7.23;88.64
10135;BME280;5107;48.850;8.924;2023-03-25T01:07:19;96147.13;;;7.19;88.57
10135;BME280;5107;48.850;8.924;2023-03-25T01:09:46;96138.25;;;7.20;88.37
10135;BME280;5107;48.850;8.924;2023-03-25T01:12:15;96146.94;;;7.21;87.70
10135;BME280;5107;48.850;8.924;2023-03-25T01:14:45;96140.41;;;7.33;86.50
10135;BME280;5107;48.850;8.924;2023-03-25T01:17:14;96141.06;;;7.35;86.84
10135;BME280;5107;48.850;8.924;2023-03-25T01:19:41;96142.03;;;7.34;86.09
10135;BME280;5107;48.850;8.924;2023-03-25T01:22:08;96129.25;;;7.39;86.06
10135;BME280;5107;48.850;8.924;2023-03-25T01:24:38;96129.09;;;7.41;86.01
10135;BME280;5107;48.850;8.924;2023-03-25T01:27:06;96117.97;;;7.39;85.85
10135;BME280;5107;48.850;8.924;2023-03-25T01:29:33;96117.00;;;7.40;85.37
10135;BME280;5107;48.850;8.924;2023-03-25T01:32:02;96113.41;;;7.41;85.00
10135;BME280;5107;48.850;8.924;2023-03-25T01:34:31;96113.91;;;7.44;84.98
10135;BME280;5107;48.850;8.924;2023-03-25T01:37:00;96118.97;;;7.38;85.51
10135;BME280;5107;48.850;8.924;2023-03-25T01:39:27;96133.84;;;7.37;85.70
10135;BME280;5107;48.850;8.924;2023-03-25T01:41:55;96126.00;;;7.37;85.52
10135;BME280;5107;48.850;8.924;2023-03-25T01:45:10;96136.81;;;7.34;85.77
10135;BME280;5107;48.850;8.924;2023-03-25T01:47:40;96130.41;;;7.29;85.34
10135;BME280;5107;48.850;8.924;2023-03-25T01:50:08;96134.03;;;7.28;85.60
10135;BME280;5107;48.850;8.924;2023-03-25T01:52:41;96111.13;;;7.21;86.15
10135;BME280;5107;48.850;8.924;2023-03-25T01:55:11;96116.19;;;7.23;85.36
10135;BME280;5107;48.850;8.924;2023-03-25T01:57:40;96117.81;;;7.24;85.60
10135;BME280;5107;48.850;8.924;2023-03-25T02:00:13;96110.13;;;7.22;85.44
10135;BME280;5107;48.850;8.924;2023-03-25T02:02:42;96105.88;;;7.21;85.34
10135;BME280;5107;48.850;8.924;2023-03-25T02:05:17;96101.63;;;7.20;85.16
10135;BME280;5107;48.850;8.924;2023-03-25T02:07:48;96095.25;;;7.23;84.77
10135;BME280;5107;48.850;8.924;2023-03-25T02:10:16;96103.78;;;7.25;84.89
10135;BME280;5107;48.850;8.924;2023-03-25T02:12:43;96103.78;;;7.25;85.28
10135;BME280;5107;48.850;8.924;2023-03-25T02:15:15;96104.75;;;7.32;84.08
10135;BME280;5107;48.850;8.924;2023-03-25T02:18:07;96113.41;;;7.33;84.85
10135;BME280;5107;48.850;8.924;2023-03-25T02:21:13;96128.13;;;7.34;85.24
10135;BME280;5107;48.850;8.924;2023-03-25T02:24:12;96171.13;;;7.31;86.86
10135;BME280;5107;48.850;8.924;2023-03-25T02:27:15;96209.91;;;6.27;87.22
10135;BME280;5107;48.850;8.924;2023-03-25T02:30:26;96205.56;;;5.84;91.10
10135;BME280;5107;48.850;8.924;2023-03-25T02:39:19;96195.72;;;5.34;92.62
10135;BME280;5107;48.850;8.924;2023-03-25T02:41:52;96200.53;;;5.29;92.46
10135;BME280;5107;48.850;8.924;2023-03-25T02:44:30;96185.50;;;5.23;93.10
10135;BME280;5107;48.850;8.924;2023-03-25T02:47:03;96170.81;;;5.22;92.79
10135;BME280;5107;48.850;8.924;2023-03-25T02:49:35;96167.41;;;5.22;92.71
10135;BME280;5107;48.850;8.924;2023-03-25T02:52:08;96157.28;;;5.19;93.13
10135;BME280;5107;48.850;8.924;2023-03-25T02:54:39;96140.00;;;5.18;92.63
10135;BME280;5107;48.850;8.924;2023-03-25T02:57:13;96137.22;;;5.19;91.90
10135;BME280;5107;48.850;8.924;2023-03-25T02:59:42;96131.03;;;5.20;93.05
10135;BME280;5107;48.850;8.924;2023-03-25T03:02:11;96129.25;;;5.21;92.51
10135;BME280;5107;48.850;8.924;2023-03-25T03:04:47;96117.84;;;5.22;91.87
10135;BME280;5107;48.850;8.924;2023-03-25T03:07:23;96111.66;;;5.23;92.31
10135;BME280;5107;48.850;8.924;2023-03-25T03:09:59;96102.34;;;5.20;92.98
10135;BME280;5107;48.850;8.924;2023-03-25T03:12:48;96101.25;;;5.23;91.99
10135;BME280;5107;48.850;8.924;2023-03-25T03:15:31;96099.16;;;5.26;92.63
10135;BME280;5107;48.850;8.924;2023-03-25T03:18:09;96096.94;;;5.40;91.61
10135;BME280;5107;48.850;8.924;2023-03-25T03:20:46;96101.09;;;5.50;90.98
10135;BME280;5107;48.850;8.924;2023-03-25T03:23:26;96093.53;;;5.65;90.29
10135;BME280;5107;48.850;8.924;2023-03-25T03:26:03;96108.28;;;5.82;89.34
10135;BME280;5107;48.850;8.924;2023-03-25T03:28:43;96117.03;;;5.91;89.05
10135;BME280;5107;48.850;8.924;2023-03-25T03:31:21;96125.19;;;5.96;88.04
10135;BME280;5107;48.850;8.924;2023-03-25T03:33:55;96126.53;;;6.00;88.98
10135;BME280;5107;48.850;8.924;2023-03-25T03:36:26;96121.34;;;6.08;87.55
10135;BME280;5107;48.850;8.924;2023-03-25T03:39:00;96121.38;;;6.16;86.20
10135;BME280;5107;48.850;8.924;2023-03-25T03:41:34;96121.06;;;6.19;86.57
10135;BME280;5107;48.850;8.924;2023-03-25T03:44:05;96136.22;;;6.16;87.32
10135;BME280;5107;48.850;8.924;2023-03-25T03:46:37;96147.19;;;6.19;85.68
10135;BME280;5107;48.850;8.924;2023-03-25T03:49:11;96135.47;;;6.31;84.89
10135;BME280;5107;48.850;8.924;2023-03-25T03:51:44;96143.97;;;6.33;85.54
10135;BME280;5107;48.850;8.924;2023-03-25T03:54:15;96143.78;;;6.27;85.55
10135;BME280;5107;48.850;8.924;2023-03-25T03:56:51;96147.22;;;6.27;85.46
10135;BME280;5107;48.850;8.924;2023-03-25T03:59:26;96148.06;;;6.36;84.51
10135;BME280;5107;48.850;8.924;2023-03-25T04:02:01;96154.59;;;6.40;84.22
10135;BME280;5107;48.850;8.924;2023-03-25T04:04:31;96161.75;;;6.30;85.76
10135;BME280;5107;48.850;8.924;2023-03-25T04:07:05;96173.50;;;6.26;86.15
10135;BME280;5107;48.850;8.924;2023-03-25T04:09:40;96182.16;;;6.26;86.05
10135;BME280;5107;48.850;8.924;2023-03-25T04:12:15;96185.78;;;6.33;84.57
10135;BME280;5107;48.850;8.924;2023-03-25T04:14:44;96171.41;;;6.37;84.85
10135;BME280;5107;48.850;8.924;2023-03-25T04:17:12;96174.34;;;6.34;85.14
10135;BME280;5107;48.850;8.924;2023-03-25T04:19:39;96175.31;;;6.33;85.13
10135;BME280;5107;48.850;8.924;2023-03-25T04:22:06;96166.66;;;6.33;84.96
10135;BME280;5107;48.850;8.924;2023-03-25T04:24:33;96176.44;;;6.31;85.40
10135;BME280;5107;48.850;8.924;2023-03-25T04:27:02;96183.47;;;6.30;84.83
10135;BME280;5107;48.850;8.924;2023-03-25T04:29:32;96180.84;;;6.30;84.43
10135;BME280;5107;48.850;8.924;2023-03-25T04:31:59;96184.91;;;6.25;84.82
10135;BME280;5107;48.850;8.924;2023-03-25T04:34:27;96182.16;;;6.26;84.66
10135;BME280;5107;48.850;8.924;2023-03-25T04:36:54;96180.00;;;6.22;84.57
10135;BME280;5107;48.850;8.924;2023-03-25T04:39:21;96174.09;;;6.20;84.59
10135;BME280;5107;48.850;8.924;2023-03-25T04:41:49;96177.22;;;6.23;84.08
10135;BME280;5107;48.850;8.924;2023-03-25T04:44:18;96179.03;;;6.23;83.86
10135;BME280;5107;48.850;8.924;2023-03-25T04:46:48;96172.13;;;6.14;83.89
10135;BME280;5107;48.850;8.924;2023-03-25T04:49:19;96171.44;;;6.12;84.22
10135;BME280;5107;48.850;8.924;2023-03-25T04:51:46;96190.06;;;6.08;84.56
10135;BME280;5107;48.850;8.924;2023-03-25T04:54:14;96192.47;;;6.02;84.86
10135;BME280;5107;48.850;8.924;2023-03-25T04:56:41;96190.16;;;5.99;84.72
10135;BME280;5107;48.850;8.924;2023-03-25T04:59:08;96206.13;;;5.96;85.23
10135;BME280;5107;48.850;8.924;2023-03-25T05:01:37;96209.16;;;6.09;83.89
10135;BME280;5107;48.850;8.924;2023-03-25T05:04:09;96206.88;;;6.14;83.63
10135;BME280;5107;48.850;8.924;2023-03-25T05:06:39;96196.03;;;6.27;82.76
10135;BME280;5107;48.850;8.924;2023-03-25T05:09:09;96197.19;;;6.32;82.66
10135;BME280;5107;48.850;8.924;2023-03-25T05:11:38;96203.44;;;6.39;81.88
10135;BME280;5107;48.850;8.924;2023-03-25T05:14:07;96210.84;;;6.52;80.92
10135;BME280;5107;48.850;8.924;2023-03-25T05:16:34;96205.78;;;6.51;81.33
10135;BME280;5107;48.850;8.924;2023-03-25T05:19:01;96199.56;;;6.52;80.74
10135;BME280;5107;48.850;8.924;2023-03-25T05:21:33;96202.34;;;6.50;80.90
10135;BME280;5107;48.850;8.924;2023-03-25T05:24:04;96196.78;;;6.53;81.00
10135;BME280;5107;48.850;8.924;2023-03-25T05:26:33;96206.78;;;6.58;80.50
10135;BME280;5107;48.850;8.924;2023-03-25T05:29:00;96207.44;;;6.60;80.31
10135;BME280;5107;48.850;8.924;2023-03-25T05:31:28;96202.38;;;6.58;80.25
10135;BME280;5107;48.850;8.924;2023-03-25T05:33:55;96212.50;;;6.61;80.29
10135;BME280;5107;48.850;8.924;2023-03-25T05:36:23;96200.91;;;6.64;79.74
10135;BME280;5107;48.850;8.924;2023-03-25T05:38:53;96208.28;;;6.68;79.25
10135;BME280;5107;48.850;8.924;2023-03-25T05:41:21;96204.84;;;6.68;79.95
10135;BME280;5107;48.850;8.924;2023-03-25T05:43:57;96192.44;;;6.70;79.31
10135;BME280;5107;48.850;8.924;2023-03-25T05:46:27;96204.22;;;6.74;79.03
10135;BME280;5107;48.850;8.924;2023-03-25T05:48:55;96209.16;;;6.85;79.00
10135;BME280;5107;48.850;8.924;2023-03-25T05:51:26;96202.63;;;6.89;78.26
10135;BME280;5107;48.850;8.924;2023-03-25T05:53:54;96192.16;;;6.89;78.57
10135;BME280;5107;48.850;8.924;2023-03-25T05:56:22;96204.25;;;6.90;78.13
10135;BME280;5107;48.850;8.924;2023-03-25T05:58:51;96197.72;;;6.86;78.90
10135;BME280;5107;48.850;8.924;2023-03-25T06:01:20;96203.16;;;7.01;77.03
10135;BME280;5107;48.850;8.924;2023-03-25T06:03:47;96210.69;;;7.12;77.83
10135;BME280;5107;48.850;8.924;2023-03-25T06:06:15;96215.78;;;7.30;77.69
10135;BME280;5107;48.850;8.924;2023-03-25T06:08:44;96217.41;;;7.31;77.35
10135;BME280;5107;48.850;8.924;2023-03-25T06:11:13;96214.81;;;7.31;77.37
10135;BME280;5107;48.850;8.924;2023-03-25T06:13:42;96205.97;;;7.32;76.85
10135;BME280;5107;48.850;8.924;2023-03-25T06:16:15;96217.41;;;7.31;77.70
10135;BME280;5107;48.850;8.924;2023-03-25T06:18:45;96226.25;;;7.54;77.25
10135;BME280;5107;48.850;8.924;2023-03-25T06:21:17;96224.66;;;7.53;77.47
10135;BME280;5107;48.850;8.924;2023-03-25T06:23:45;96215.16;;;7.36;78.82
10135;BME280;5107;48.850;8.924;2023-03-25T06:26:14;96218.53;;;7.28;79.22
10135;BME280;5107;48.850;8.924;2023-03-25T06:28:41;96214.34;;;7.43;79.08
10135;BME280;5107;48.850;8.924;2023-03-25T06:31:12;96227.44;;;7.68;77.23
10135;BME280;5107;48.850;8.924;2023-03-25T06:33:41;96222.03;;;7.85;75.83
10135;BME280;5107;48.850;8.924;2023-03-25T06:36:09;96232.16;;;7.96;75.84
10135;BME280;5107;48.850;8.924;2023-03-25T06:38:37;96219.53;;;8.08;75.38
10135;BME280;5107;48.850;8.924;2023-03-25T06:41:08;96220.03;;;7.95;75.83
10135;BME280;5107;48.850;8.924;2023-03-25T06:43:39;96230.00;;;8.08;76.48
10135;BME280;5107;48.850;8.924;2023-03-25T06:46:44;96221.63;;;8.21;76.15
10135;BME280;5107;48.850;8.924;2023-03-25T06:49:28;96230.81;;;8.33;75.41
10135;BME280;5107;48.850;8.924;2023-03-25T06:51:57;96240.97;;;8.36;75.70
10135;BME280;5107;48.850;8.924;2023-03-25T06:54:24;96226.88;;;8.45;75.89
10135;BME280;5107;48.850;8.924;2023-03-25T06:56:51;96215.84;;;8.50;74.65
10135;BME280;5107;48.850;8.924;2023-03-25T06:59:19;96228.81;;;8.51;74.57
10135;BME280;5107;48.850;8.924;2023-03-25T07:01:46;96220.78;;;8.53;74.93
10135;BME280;5107;48.850;8.924;2023-03-25T07:04:13;96231.69;;;8.64;75.53
10135;BME280;5107;48.850;8.924;2023-03-25T07:06:40;96232.28;;;8.44;74.49
10135;BME280;5107;48.850;8.924;2023-03-25T07:09:07;96222.63;;;8.28;76.45
10135;BME280;5107;48.850;8.924;2023-03-25T07:11:35;96230.09;;;8.55;75.92
10135;BME280;5107;48.850;8.924;2023-03-25T07:14:02;96227.94;;;8.67;74.54
10135;BME280;5107;48.850;8.924;2023-03-25T07:16:31;96228.06;;;8.73;73.14
10135;BME280;5107;48.850;8.924;2023-03-25T07:18:58;96212.47;;;8.72;74.08
10135;BME280;5107;48.850;8.924;2023-03-25T07:21:26;96208.47;;;8.92;74.76
10135;BME280;5107;48.850;8.924;2023-03-25T07:23:53;96190.59;;;8.88;73.26
10135;BME280;5107;48.850;8.924;2023-03-25T07:26:20;96212.38;;;8.96;73.85
10135;BME280;5107;48.850;8.924;2023-03-25T07:28:47;96212.16;;;9.06;73.06
10135;BME280;5107;48.850;8.924;2023-03-25T07:31:15;96210.75;;;8.95;71.94
10135;BME280;5107;48.850;8.924;2023-03-25T07:33:44;96211.63;;;8.80;72.90
10135;BME280;5107;48.850;8.924;2023-03-25T07:36:12;96210.50;;;8.74;74.22
10135;BME280;5107;48.850;8.924;2023-03-25T07:38:39;96204.28;;;8.75;73.63
10135;BME280;5107;48.850;8.924;2023-03-25T07:41:10;96204.41;;;8.82;74.69
10135;BME280;5107;48.850;8.924;2023-03-25T07:43:41;96200.06;;;8.97;75.21
10135;BME280;5107;48.850;8.924;2023-03-25T07:46:21;96214.09;;;9.12;74.39
10135;BME280;5107;48.850;8.924;2023-03-25T07:48:49;96212.81;;;9.31;74.61
10135;BME280;5107;48.850;8.924;2023-03-25T07:51:17;96207.50;;;9.16;73.69
10135;BME280;5107;48.850;8.924;2023-03-25T07:53:45;96213.25;;;9.20;73.00
10135;BME280;5107;48.850;8.924;2023-03-25T07:56:13;96213.13;;;9.36;73.35
10135;BME280;5107;48.850;8.924;2023-03-25T07:58:40;96209.75;;;9.50;72.89
10135;BME280;5107;48.850;8.924;2023-03-25T08:01:09;96201.91;;;9.65;71.74
10135;BME280;5107;48.850;8.924;2023-03-25T08:03:36;96205.75;;;9.77;72.14
10135;BME280;5107;48.850;8.924;2023-03-25T08:06:07;96198.72;;;9.92;71.32
10135;BME280;5107;48.850;8.924;2023-03-25T08:08:34;96209.97;;;10.01;72.22
10135;BME280;5107;48.850;8.924;2023-03-25T08:11:01;96203.44;;;10.34;71.59
10135;BME280;5107;48.850;8.924;2023-03-25T08:13:29;96207.69;;;10.35;71.30
10135;BME280;5107;48.850;8.924;2023-03-25T08:15:56;96216.03;;;10.24;70.42
10135;BME280;5107;48.850;8.924;2023-03-25T08:18:24;96211.59;;;10.24;69.75
10135;BME280;5107;48.850;8.924;2023-03-25T08:20:51;96211.69;;;9.94;68.64
10135;BME280;5107;48.850;8.924;2023-03-25T08:23:21;96211.63;;;10.02;69.10
10135;BME280;5107;48.850;8.924;2023-03-25T08:25:50;96210.16;;;9.99;70.37
10135;BME280;5107;48.850;8.924;2023-03-25T08:28:20;96212.75;;;9.84;70.31
10135;BME280;5107;48.850;8.924;2023-03-25T08:30:49;96217.44;;;9.51;70.25
10135;BME280;5107;48.850;8.924;2023-03-25T08:33:20;96219.06;;;9.30;73.36
10135;BME280;5107;48.850;8.924;2023-03-25T08:35:47;96220.63;;;8.85;76.21
10135;BME280;5107;48.850;8.924;2023-03-25T08:38:15;96241.88;;;8.59;79.48
10135;BME280;5107;48.850;8.924;2023-03-25T08:40:44;96240.97;;;8.36;80.97
10135;BME280;5107;48.850;8.924;2023-03-25T08:43:11;96240.47;;;8.32;82.87
10135;BME280;5107;48.850;8.924;2023-03-25T08:45:38;96234.59;;;8.14;83.45
10135;BME280;5107;48.850;8.924;2023-03-25T08:48:06;96245.06;;;8.06;85.71
10135;BME280;5107;48.850;8.924;2023-03-25T08:50:33;96252.78;;;8.08;86.74
10135;BME280;5107;48.850;8.924;2023-03-25T08:53:00;96261.13;;;7.87;86.40
10135;BME280;5107;48.850;8.924;2023-03-25T08:55:27;96248.53;;;7.82;88.33
10135;BME280;5107;48.850;8.924;2023-03-25T08:57:55;96236.25;;;7.67;86.21
10135;BME280;5107;48.850;8.924;2023-03-25T09:00:22;96233.63;;;7.91;86.81
10135;BME280;5107;48.850;8.924;2023-03-25T09:02:52;96235.75;;;8.20;86.12
10135;BME280;5107;48.850;8.924;2023-03-25T09:05:19;96235.47;;;8.70;84.60
10135;BME280;5107;48.850;8.924;2023-03-25T09:07:46;96230.97;;;8.31;81.29
10135;BME280;5107;48.850;8.924;2023-03-25T09:10:20;96238.78;;;8.48;83.84
10135;BME280;5107;48.850;8.924;2023-03-25T09:12:51;96236.81;;;8.58;82.81
10135;BME280;5107;48.850;8.924;2023-03-25T09:15:22;96241.81;;;8.75;80.83
10135;BME280;5107;48.850;8.924;2023-03-25T09:17:49;96231.25;;;8.92;79.67
10135;BME280;5107;48.850;8.924;2023-03-25T09:20:18;96225.59;;;9.11;80.47
10135;BME280;5107;48.850;8.924;2023-03-25T09:22:45;96222.16;;;9.56;80.59
10135;BME280;5107;48.850;8.924;2023-03-25T09:25:12;96219.13;;;9.67;75.70
10135;BME280;5107;48.850;8.924;2023-03-25T09:27:43;96215.28;;;9.55;75.45
10135;BME280;5107;48.850;8.924;2023-03-25T09:30:16;96216.97;;;9.25;74.46
10135;BME280;5107;48.850;8.924;2023-03-25T09:32:48;96227.78;;;9.53;77.35
10135;BME280;5107;48.850;8.924;2023-03-25T09:35:15;96218.59;;;9.72;75.48
10135;BME280;5107;48.850;8.924;2023-03-25T09:37:45;96217.28;;;9.53;73.63
10135;BME280;5107;48.850;8.924;2023-03-25T09:40:14;96223.03;;;9.71;77.52
10135;BME280;5107;48.850;8.924;2023-03-25T09:43:01;96230.97;;;9.86;74.17
10135;BME280;5107;48.850;8.924;2023-03-25T09:45:35;96225.34;;;9.89;74.70
10135;BME280;5107;48.850;8.924;2023-03-25T09:48:20;96201.94;;;9.79;76.11
10135;BME280;5107;48.850;8.924;2023-03-25T09:50:51;96221.31;;;10.16;76.00
10135;BME280;5107;48.850;8.924;2023-03-25T09:53:28;96215.97;;;10.09;74.72
10135;BME280;5107;48.850;8.924;2023-03-25T09:55:57;96222.03;;;9.95;75.94
10135;BME280;5107;48.850;8.924;2023-03-25T09:58:33;96226.84;;;10.29;74.66
10135;BME280;5107;48.850;8.924;2023-03-25T10:01:14;96212.22;;;10.41;75.03
10135;BME280;5107;48.850;8.924;2023-03-25T10:04:00;96218.28;;;10.56;73.25
10135;BME280;5107;48.850;8.924;2023-03-25T10:06:30;96221.19;;;10.91;72.69
10135;BME280;5107;48.850;8.924;2023-03-25T10:09:22;96220.16;;;11.07;71.14
10135;BME280;5107;48.850;8.924;2023-03-25T10:12:00;96219.97;;;11.44;71.45
10135;BME280;5107;48.850;8.924;2023-03-25T10:14:39;96224.63;;;10.91;70.11
10135;BME280;5107;48.850;8.924;2023-03-25T10:17:18;96223.66;;;10.63;70.75
10135;BME280;5107;48.850;8.924;2023-03-25T10:19:56;96225.47;;;10.33;71.67
10135;BME280;5107;48.850;8.924;2023-03-25T10:22:35;96227.13;;;10.11;72.89
10135;BME280;5107;48.850;8.924;2023-03-25T10:25:13;96223.78;;;9.80;73.24
10135;BME280;5107;48.850;8.924;2023-03-25T10:27:45;96227.03;;;9.44;74.61
10135;BME280;5107;48.850;8.924;2023-03-25T10:30:19;96226.06;;;9.37;76.80
10135;BME280;5107;48.850;8.924;2023-03-25T10:32:51;96226.47;;;9.26;75.81
10135;BME280;5107;48.850;8.924;2023-03-25T10:35:24;96230.09;;;9.25;75.37
10135;BME280;5107;48.850;8.924;2023-03-25T10:37:59;96235.28;;;9.33;72.74
10135;BME280;5107;48.850;8.924;2023-03-25T10:40:32;96225.03;;;9.46;72.93
10135;BME280;5107;48.850;8.924;2023-03-25T10:43:13;96233.31;;;9.81;71.75
10135;BME280;5107;48.850;8.924;2023-03-25T10:45:43;96223.84;;;9.95;67.98
10135;BME280;5107;48.850;8.924;2023-03-25T10:48:15;96222.66;;;10.20;68.18
10135;BME280;5107;48.850;8.924;2023-03-25T10:50:45;96229.16;;;10.24;67.12
10135;BME280;5107;48.850;8.924;2023-03-25T10:53:21;96210.59;;;10.55;67.42
10135;BME280;5107;48.850;8.924;2023-03-25T10:55:53;96213.69;;;10.44;66.76
10135;BME280;5107;48.850;8.924;2023-03-25T10:58:23;96213.84;;;10.57;67.29
10135;BME280;5107;48.850;8.924;2023-03-25T11:00:50;96210.88;;;11.11;65.14
10135;BME280;5107;48.850;8.924;2023-03-25T11:03:21;96189.31;;;11.22;63.30
10135;BME280;5107;48.850;8.924;2023-03-25T11:05:51;96191.81;;;11.09;63.00
10135;BME280;5107;48.850;8.924;2023-03-25T11:08:20;96172.22;;;10.96;63.62
10135;BME280;5107;48.850;8.924;2023-03-25T11:10:49;96202.50;;;10.56;65.19
10135;BME280;5107;48.850;8.924;2023-03-25T11:13:24;96195.13;;;10.81;66.63
10135;BME280;5107;48.850;8.924;2023-03-25T11:15:53;96186.91;;;10.55;65.02
10135;BME280;5107;48.850;8.924;2023-03-25T11:18:26;96197.16;;;10.50;66.08
10135;BME280;5107;48.850;8.924;2023-03-25T11:21:00;96184.81;;;11.16;64.58
10135;BME280;5107;48.850;8.924;2023-03-25T11:23:31;96186.34;;;11.67;63.68
10135;BME280;5107;48.850;8.924;2023-03-25T11:26:04;96181.41;;;11.79;62.84
10135;BME280;5107;48.850;8.924;2023-03-25T11:28:37;96198.72;;;12.16;62.57
10135;BME280;5107;48.850;8.924;2023-03-25T11:31:09;96167.59;;;11.77;59.58
10135;BME280;5107;48.850;8.924;2023-03-25T11:33:37;96160.84;;;11.96;61.93
10135;BME280;5107;48.850;8.924;2023-03-25T11:36:25;96189.84;;;12.24;61.16
10135;BME280;5107;48.850;8.924;2023-03-25T11:38:58;96199.84;;;12.63;62.01
10135;BME280;5107;48.850;8.924;2023-03-25T11:41:32;96179.69;;;11.93;60.57
10135;BME280;5107;48.850;8.924;2023-03-25T11:44:05;96160.44;;;11.71;60.58
10135;BME280;5107;48.850;8.924;2023-03-25T11:46:33;96192.41;;;11.47;62.55
10135;BME280;5107;48.850;8.924;2023-03-25T11:49:08;96189.72;;;11.19;63.12
10135;BME280;5107;48.850;8.924;2023-03-25T11:51:38;96187.19;;;11.11;65.61
10135;BME280;5107;48.850;8.924;2023-03-25T11:54:08;96217.69;;;11.05;67.84
10135;BME280;5107;48.850;8.924;2023-03-25T11:56:40;96223.91;;;10.83;65.74
10135;BME280;5107;48.850;8.924;2023-03-25T11:59:17;96196.75;;;10.97;66.18
10135;BME280;5107;48.850;8.924;2023-03-25T12:01:46;96203.22;;;10.94;65.30
10135;BME280;5107;48.850;8.924;2023-03-25T12:04:17;96210.13;;;11.17;64.47
10135;BME280;5107;48.850;8.924;2023-03-25T12:06:59;96207.72;;;11.36;64.41
10135;BME280;5107;48.850;8.924;2023-03-25T12:09:29;96196.16;;;11.16;64.14
10135;BME280;5107;48.850;8.924;2023-03-25T12:12:20;96204.94;;;11.23;64.73
10135;BME280;5107;48.850;8.924;2023-03-25T12:14:58;96195.88;;;11.47;64.06
10135;BME280;5107;48.850;8.924;2023-03-25T12:17:44;96230.84;;;11.20;66.16
10135;BME280;5107;48.850;8.924;2023-03-25T12:20:24;96217.84;;;10.82;67.67
10135;BME280;5107;48.850;8.924;2023-03-25T12:23:01;96212.56;;;10.38;68.29
10135;BME280;5107;48.850;8.924;2023-03-25T12:25:40;96239.09;;;10.14;69.95
10135;BME280;5107;48.850;8.924;2023-03-25T12:28:58;96258.59;;;9.82;72.77
10135;BME280;5107;48.850;8.924;2023-03-25T12:31:40;96269.53;;;9.40;76.00
10135;BME280;5107;48.850;8.924;2023-03-25T12:34:22;96268.81;;;8.92;79.05
10135;BME280;5107;48.850;8.924;2023-03-25T12:37:03;96256.06;;;9.20;82.71
10135;BME280;5107;48.850;8.924;2023-03-25T12:39:43;96242.91;;;9.51;82.00
10135;BME280;5107;48.850;8.924;2023-03-25T12:42:27;96248.63;;;9.77;79.86
10135;BME280;5107;48.850;8.924;2023-03-25T12:45:29;96226.41;;;9.80;74.21
10135;BME280;5107;48.850;8.924;2023-03-25T12:48:06;96217.72;;;10.17;72.48
10135;BME280;5107;48.850;8.924;2023-03-25T12:50:50;96246.94;;;10.22;70.70
10135;BME280;5107;48.850;8.924;2023-03-25T12:56:35;96234.50;;;10.89;71.35
10135;BME280;5107;48.850;8.924;2023-03-25T12:59:25;96253.78;;;10.46;71.00
10135;BME280;5107;48.850;8.924;2023-03-25T13:02:11;96253.78;;;10.46;71.40
10135;BME280;5107;48.850;8.924;2023-03-25T13:05:00;96244.88;;;10.76;71.28
10135;BME280;5107;48.850;8.924;2023-03-25T13:07:34;96230.25;;;11.03;69.98
10135;BME280;5107;48.850;8.924;2023-03-25T13:10:12;96244.63;;;11.22;66.71
10135;BME280;5107;48.850;8.924;2023-03-25T13:12:47;96232.50;;;11.42;67.13
10135;BME280;5107;48.850;8.924;2023-03-25T13:15:19;96242.75;;;11.16;65.90
10135;BME280;5107;48.850;8.924;2023-03-25T13:17:50;96243.50;;;10.80;67.41
10135;BME280;5107;48.850;8.924;2023-03-25T13:20:20;96241.78;;;10.73;68.72
10135;BME280;5107;48.850;8.924;2023-03-25T13:22:52;96244.53;;;10.79;69.72
10135;BME280;5107;48.850;8.924;2023-03-25T13:25:26;96243.94;;;10.98;68.49
10135;BME280;5107;48.850;8.924;2023-03-25T13:28:01;96232.47;;;10.70;68.81
10135;BME280;5107;48.850;8.924;2023-03-25T13:30:33;96238.34;;;10.57;69.44
10135;BME280;5107;48.850;8.924;2023-03-25T13:33:09;96231.38;;;10.79;68.98
10135;BME280;5107;48.850;8.924;2023-03-25T13:35:43;96225.53;;;10.98;69.08
10135;BME280;5107;48.850;8.924;2023-03-25T13:38:18;96194.59;;;11.22;65.59
10135;BME280;5107;48.850;8.924;2023-03-25T13:40:53;96201.31;;;11.67;64.39
10135;BME280;5107;48.850;8.924;2023-03-25T13:43:31;96209.53;;;12.00;65.11
10135;BME280;5107;48.850;8.924;2023-03-25T13:46:04;96214.03;;;11.78;59.36
10135;BME280;5107;48.850;8.924;2023-03-25T13:48:39;96230.44;;;11.59;60.22
10135;BME280;5107;48.850;8.924;2023-03-25T13:51:09;96231.88;;;11.40;60.39
10135;BME280;5107;48.850;8.924;2023-03-25T13:53:39;96246.66;;;11.20;60.95
10135;BME280;5107;48.850;8.924;2023-03-25T13:56:57;96253.78;;;10.75;62.17